createdAt,value
2023-04-16T00:01:36.013Z,45.47
2023-04-16T00:04:02.765Z,42.47
2023-04-16T00:06:29.590Z,43.53
2023-04-16T00:08:56.413Z,43.53
2023-04-16T00:11:22.836Z,44.05
2023-04-16T00:13:49.374Z,46.30
2023-04-16T00:16:16.145Z,45.85
2023-04-16T00:18:42.618Z,43.95
2023-04-16T00:21:09.074Z,43.80
2023-04-16T00:23:35.725Z,45.38
2023-04-16T00:26:02.187Z,45.97
2023-04-16T00:28:29.016Z,44.38
2023-04-16T00:30:55.753Z,44.22
2023-04-16T00:33:22.691Z,44.85
2023-04-16T00:35:49.371Z,44.75
2023-04-16T00:38:16.125Z,44.97
2023-04-16T00:40:42.735Z,45.90
2023-04-16T00:43:09.230Z,45.42
2023-04-16T00:45:36.521Z,44.90
2023-04-16T00:48:03.304Z,46.20
2023-04-16T00:50:30.000Z,45.95
2023-04-16T00:52:57.086Z,46.13
2023-04-16T00:55:23.743Z,46.13
2023-04-16T00:57:50.513Z,46.65
2023-04-16T01:00:17.214Z,46.35
2023-04-16T01:02:43.834Z,44.80
2023-04-16T01:08:57.609Z,46.03
2023-04-16T01:11:24.102Z,44.95
2023-04-16T01:13:50.982Z,44.70
2023-04-16T01:16:17.547Z,45.78
2023-04-16T01:18:44.026Z,46.17
2023-04-16T01:21:10.552Z,45.95
2023-04-16T01:23:36.992Z,45.30
2023-04-16T01:26:03.556Z,45.63
2023-04-16T01:28:30.056Z,44.78
2023-04-16T01:30:56.556Z,43.60
2023-04-16T01:33:23.080Z,43.00
2023-04-16T01:35:49.628Z,43.65
2023-04-16T01:38:16.488Z,42.30
2023-04-16T01:40:42.952Z,43.80
2023-04-16T01:43:09.511Z,45.25
2023-04-16T01:45:36.011Z,44.08
2023-04-16T01:48:03.766Z,41.80
2023-04-16T01:50:30.837Z,42.78
2023-04-16T01:52:57.356Z,43.83
2023-04-16T01:55:23.843Z,43.58
2023-04-16T01:57:50.832Z,42.25
2023-04-16T02:00:17.286Z,43.00
2023-04-16T02:02:43.861Z,41.40
2023-04-16T02:05:10.402Z,41.10
2023-04-16T02:07:36.805Z,47.38
2023-04-16T02:10:04.700Z,47.55
2023-04-16T02:12:31.090Z,43.08
2023-04-16T02:14:57.517Z,44.17
2023-04-16T02:17:24.025Z,41.08
2023-04-16T02:19:50.651Z,41.00
2023-04-16T02:22:17.156Z,38.88
2023-04-16T02:24:43.675Z,40.17
2023-04-16T02:27:10.126Z,38.85
2023-04-16T02:29:36.552Z,38.13
2023-04-16T02:32:03.122Z,38.38
2023-04-16T02:34:29.703Z,37.83
2023-04-16T02:36:58.336Z,38.30
2023-04-16T02:39:24.816Z,40.33
2023-04-16T02:41:51.424Z,39.00
2023-04-16T02:44:17.930Z,37.92
2023-04-16T02:46:44.358Z,39.92
2023-04-16T02:49:11.010Z,41.15
2023-04-16T02:51:37.482Z,43.17
2023-04-16T02:54:03.895Z,44.00
2023-04-16T02:56:30.446Z,41.03
2023-04-16T02:58:56.863Z,41.92
2023-04-16T03:01:23.482Z,40.75
2023-04-16T03:03:49.983Z,41.40
2023-04-16T03:06:16.780Z,43.13
2023-04-16T03:08:43.343Z,42.70
2023-04-16T03:11:09.747Z,43.20
2023-04-16T03:13:36.279Z,44.03
2023-04-16T03:16:03.025Z,43.42
2023-04-16T03:18:29.672Z,46.00
2023-04-16T03:20:56.164Z,46.70
2023-04-16T03:23:22.601Z,46.03
2023-04-16T03:25:49.066Z,46.47
2023-04-16T03:28:15.687Z,45.03
2023-04-16T03:30:42.134Z,45.80
2023-04-16T03:33:08.565Z,46.88
2023-04-16T03:35:35.350Z,44.05
2023-04-16T03:38:01.780Z,44.53
2023-04-16T03:40:28.245Z,45.08
2023-04-16T03:42:54.740Z,44.40
2023-04-16T03:45:21.160Z,46.22
2023-04-16T03:47:52.410Z,45.78
2023-04-16T03:50:19.558Z,42.85
2023-04-16T03:52:46.932Z,43.22
2023-04-16T03:55:13.906Z,44.08
2023-04-16T03:57:40.692Z,43.05
2023-04-16T04:00:07.865Z,41.65
2023-04-16T04:02:34.516Z,43.60
2023-04-16T04:05:01.108Z,42.97
2023-04-16T04:07:27.597Z,42.15
2023-04-16T04:09:54.252Z,41.60
2023-04-16T04:12:20.706Z,39.47
2023-04-16T04:14:47.101Z,39.78
2023-04-16T04:17:13.590Z,39.30
2023-04-16T04:19:47.125Z,38.03
2023-04-16T04:22:21.022Z,36.25
2023-04-16T04:24:47.507Z,36.95
2023-04-16T04:27:13.994Z,37.65
2023-04-16T04:29:40.551Z,37.60
2023-04-16T04:32:07.111Z,40.08
2023-04-16T04:34:33.582Z,37.35
2023-04-16T04:37:00.165Z,36.65
2023-04-16T04:39:27.159Z,38.10
2023-04-16T04:41:53.658Z,36.72
2023-04-16T04:44:20.165Z,39.22
2023-04-16T04:46:46.612Z,40.83
2023-04-16T04:49:13.106Z,40.83
2023-04-16T04:51:39.601Z,40.20
2023-04-16T04:54:06.157Z,41.75
2023-04-16T04:56:32.565Z,44.20
2023-04-16T04:58:59.029Z,44.33
2023-04-16T05:01:25.599Z,43.72
2023-04-16T05:03:52.116Z,43.97
2023-04-16T05:06:18.652Z,42.35
2023-04-16T05:08:45.069Z,41.88
2023-04-16T05:11:11.537Z,45.45
2023-04-16T05:13:38.062Z,44.97
2023-04-16T05:16:04.798Z,43.17
2023-04-16T05:18:32.615Z,42.05
2023-04-16T05:20:59.092Z,43.28
2023-04-16T05:23:25.561Z,42.60
2023-04-16T05:25:52.009Z,43.30
2023-04-16T05:28:18.483Z,42.65
2023-04-16T05:30:44.901Z,40.90
2023-04-16T05:33:11.411Z,43.30
2023-04-16T05:35:37.858Z,40.83
2023-04-16T05:38:04.514Z,39.53
2023-04-16T05:40:32.349Z,40.53
2023-04-16T05:42:58.787Z,39.60
2023-04-16T05:45:26.729Z,40.10
2023-04-16T05:47:54.540Z,38.72
2023-04-16T05:50:20.984Z,38.25
2023-04-16T05:52:47.682Z,35.20
2023-04-16T05:55:14.162Z,36.97
2023-04-16T05:57:40.707Z,35.75
2023-04-16T06:00:08.048Z,36.13
2023-04-16T06:02:34.729Z,36.30
2023-04-16T06:05:01.367Z,33.70
2023-04-16T06:07:27.804Z,34.78
2023-04-16T06:09:54.345Z,34.50
2023-04-16T06:12:20.810Z,35.17
2023-04-16T06:14:48.404Z,33.00
2023-04-16T06:17:14.902Z,32.78
2023-04-16T06:19:41.339Z,32.20
2023-04-16T06:22:07.868Z,32.95
2023-04-16T06:24:34.352Z,32.90
2023-04-16T06:27:00.877Z,33.72
2023-04-16T06:29:36.817Z,33.45
2023-04-16T06:32:07.903Z,32.13
2023-04-16T06:34:34.538Z,33.75
2023-04-16T06:37:01.271Z,31.45
2023-04-16T06:39:27.992Z,32.65
2023-04-16T06:41:54.574Z,32.70
2023-04-16T06:44:21.314Z,33.75
2023-04-16T06:46:47.869Z,32.17
2023-04-16T06:49:14.367Z,32.13
2023-04-16T06:51:41.953Z,32.28
2023-04-16T06:54:08.560Z,32.60
2023-04-16T06:56:37.295Z,31.38
2023-04-16T06:59:04.241Z,33.38
2023-04-16T07:01:33.527Z,32.58
2023-04-16T07:04:00.306Z,32.25
2023-04-16T07:06:27.157Z,30.88
2023-04-16T07:08:53.644Z,30.35
2023-04-16T07:11:20.907Z,32.13
2023-04-16T07:13:47.397Z,32.83
2023-04-16T07:16:13.975Z,31.40
2023-04-16T07:18:40.425Z,33.63
2023-04-16T07:21:06.861Z,33.13
2023-04-16T07:23:33.374Z,32.92
2023-04-16T07:25:59.833Z,31.25
2023-04-16T07:28:26.330Z,32.78
2023-04-16T07:30:52.837Z,31.63
2023-04-16T07:33:19.293Z,30.90
2023-04-16T07:35:45.779Z,33.22
2023-04-16T07:38:12.298Z,32.25
2023-04-16T07:40:38.827Z,33.13
2023-04-16T07:43:05.374Z,32.70
2023-04-16T07:45:31.854Z,31.25
2023-04-16T07:47:58.553Z,30.88
2023-04-16T07:50:25.414Z,32.38
2023-04-16T07:52:51.928Z,31.75
2023-04-16T07:55:18.414Z,32.70
2023-04-16T07:57:44.893Z,32.75
2023-04-16T08:00:11.913Z,31.83
2023-04-16T08:02:38.656Z,31.95
2023-04-16T08:05:05.605Z,30.52
2023-04-16T08:07:34.044Z,30.30
2023-04-16T08:10:01.316Z,30.92
2023-04-16T08:12:27.814Z,29.25
2023-04-16T08:14:54.360Z,30.75
2023-04-16T08:17:20.889Z,29.33
2023-04-16T08:19:47.476Z,29.90
2023-04-16T08:22:14.092Z,30.58
2023-04-16T08:24:40.777Z,30.45
2023-04-16T08:27:17.947Z,30.17
2023-04-16T08:29:46.272Z,28.13
2023-04-16T08:32:12.890Z,27.38
2023-04-16T08:34:39.494Z,29.13
2023-04-16T08:37:06.031Z,26.77
2023-04-16T08:39:32.649Z,24.80
2023-04-16T08:42:00.609Z,28.25
2023-04-16T08:44:32.644Z,25.58
2023-04-16T08:47:00.340Z,27.10
2023-04-16T08:49:27.600Z,25.90
2023-04-16T08:51:55.626Z,25.50
2023-04-16T08:54:56.722Z,23.98
2023-04-16T08:57:26.833Z,25.65
2023-04-16T08:59:55.184Z,24.05
2023-04-16T09:02:22.288Z,24.08
2023-04-16T09:04:50.695Z,23.83
2023-04-16T09:07:19.506Z,23.42
2023-04-16T09:09:48.463Z,23.92
2023-04-16T09:12:15.359Z,23.88
2023-04-16T09:14:43.034Z,23.05
2023-04-16T09:17:10.354Z,23.67
2023-04-16T09:19:37.055Z,22.85
2023-04-16T09:22:03.474Z,26.00
2023-04-16T09:24:30.023Z,25.80
2023-04-16T09:26:57.436Z,24.52
2023-04-16T09:29:49.899Z,24.17
2023-04-16T09:32:16.473Z,24.50
2023-04-16T09:35:00.152Z,24.48
2023-04-16T09:37:29.864Z,25.10
2023-04-16T09:40:01.330Z,22.02
2023-04-16T09:42:30.015Z,22.15
2023-04-16T09:44:59.428Z,22.98
2023-04-16T09:47:39.833Z,21.05
2023-04-16T09:50:07.554Z,20.10
2023-04-16T09:52:36.999Z,20.92
2023-04-16T09:55:03.533Z,20.13
2023-04-16T09:57:30.467Z,20.83
2023-04-16T10:00:05.950Z,20.48
2023-04-16T10:02:34.564Z,20.85
2023-04-16T10:05:05.246Z,21.67
2023-04-16T10:07:36.215Z,23.48
2023-04-16T10:10:04.415Z,23.88
2023-04-16T10:12:32.917Z,23.83
2023-04-16T10:14:59.732Z,23.73
2023-04-16T10:17:29.879Z,24.25
2023-04-16T10:19:58.363Z,26.67
2023-04-16T10:22:26.320Z,26.70
2023-04-16T10:24:53.935Z,26.35
2023-04-16T10:27:20.703Z,25.52
2023-04-16T10:29:48.750Z,25.73
2023-04-16T10:32:16.928Z,25.77
2023-04-16T10:34:43.482Z,26.25
2023-04-16T10:37:09.915Z,25.42
2023-04-16T10:39:37.552Z,23.63
2023-04-16T10:42:09.955Z,24.13
2023-04-16T10:44:36.617Z,24.13
2023-04-16T10:47:03.383Z,22.80
2023-04-16T10:49:29.987Z,23.10
2023-04-16T10:52:11.595Z,24.38
2023-04-16T10:54:38.838Z,24.90
2023-04-16T10:57:06.752Z,28.20
2023-04-16T10:59:35.921Z,28.48
2023-04-16T11:02:09.098Z,27.80
2023-04-16T11:04:38.112Z,27.85
2023-04-16T11:07:15.423Z,28.27
2023-04-16T11:09:52.539Z,28.55
2023-04-16T11:12:37.894Z,28.60
2023-04-16T11:15:06.335Z,29.83
2023-04-16T11:17:44.067Z,29.02
2023-04-16T11:20:27.873Z,29.13
2023-04-16T11:22:56.496Z,28.88
2023-04-16T11:25:31.288Z,27.23
2023-04-16T11:28:01.423Z,25.77
2023-04-16T11:30:36.293Z,25.75
2023-04-16T11:33:12.472Z,26.42
2023-04-16T11:35:39.806Z,28.15
2023-04-16T11:38:07.244Z,26.13
2023-04-16T11:40:34.234Z,23.90
2023-04-16T11:43:15.077Z,25.45
2023-04-16T11:45:59.273Z,31.30
2023-04-16T11:48:26.494Z,24.63
2023-04-16T11:50:57.143Z,25.70
2023-04-16T11:53:23.804Z,25.60
2023-04-16T11:55:50.414Z,23.38
2023-04-16T11:58:17.066Z,20.73
2023-04-16T12:00:45.227Z,20.15
2023-04-16T12:03:12.100Z,21.85
2023-04-16T12:05:40.724Z,19.45
2023-04-16T12:08:12.436Z,20.05
2023-04-16T12:13:21.698Z,20.52
2023-04-16T12:15:50.068Z,19.42
2023-04-16T12:18:17.848Z,19.58
2023-04-16T12:20:45.599Z,20.48
2023-04-16T12:23:25.425Z,19.27
2023-04-16T12:25:52.351Z,19.13
2023-04-16T12:28:29.918Z,17.92
2023-04-16T12:30:56.567Z,16.60
2023-04-16T12:33:23.204Z,16.45
2023-04-16T12:35:50.902Z,16.27
2023-04-16T12:38:17.450Z,18.17
2023-04-16T12:40:44.252Z,17.45
2023-04-16T12:43:11.078Z,17.38
2023-04-16T12:45:38.779Z,17.63
2023-04-16T12:48:05.733Z,17.95
2023-04-16T12:50:32.711Z,17.75
2023-04-16T12:52:59.589Z,18.17
2023-04-16T12:55:26.052Z,16.90
2023-04-16T12:57:55.186Z,18.15
2023-04-16T13:00:22.559Z,18.38
2023-04-16T13:02:49.259Z,17.20
2023-04-16T13:05:17.178Z,15.18
2023-04-16T13:07:43.652Z,14.45
2023-04-16T13:10:10.467Z,14.15
2023-04-16T13:12:37.065Z,14.75
2023-04-16T13:15:03.832Z,14.40
2023-04-16T13:17:30.526Z,15.82
2023-04-16T13:19:57.011Z,16.33
2023-04-16T13:22:24.275Z,14.63
2023-04-16T13:24:50.870Z,16.33
2023-04-16T13:27:17.922Z,16.88
2023-04-16T13:29:44.825Z,17.63
2023-04-16T13:32:13.701Z,18.05
2023-04-16T13:34:40.289Z,19.17
2023-04-16T13:37:06.834Z,16.02
2023-04-16T13:39:33.664Z,17.25
2023-04-16T13:42:00.342Z,17.33
2023-04-16T13:44:26.828Z,16.80
2023-04-16T13:46:53.577Z,17.10
2023-04-16T13:49:20.270Z,16.45
2023-04-16T13:51:46.733Z,16.42
2023-04-16T13:54:13.356Z,16.13
2023-04-16T13:56:40.860Z,16.70
2023-04-16T13:59:07.974Z,16.45
2023-04-16T14:01:34.559Z,15.98
2023-04-16T14:04:06.119Z,15.65
2023-04-16T14:06:33.962Z,15.15
2023-04-16T14:09:00.463Z,14.65
2023-04-16T14:11:26.890Z,14.82
2023-04-16T14:13:53.432Z,14.00
2023-04-16T14:16:20.083Z,15.07
2023-04-16T14:18:47.541Z,14.45
2023-04-16T14:21:13.989Z,16.50
2023-04-16T14:23:41.174Z,15.90
2023-04-16T14:26:08.115Z,14.52
2023-04-16T14:28:35.643Z,14.48
2023-04-16T14:31:02.277Z,15.75
2023-04-16T14:33:28.841Z,14.90
2023-04-16T14:35:55.469Z,13.30
2023-04-16T14:38:21.995Z,13.07
2023-04-16T14:40:48.724Z,12.57
2023-04-16T14:43:15.373Z,13.15
2023-04-16T14:45:42.272Z,12.23
2023-04-16T14:48:08.781Z,11.48
2023-04-16T14:50:39.104Z,10.10
2023-04-16T14:53:05.917Z,9.73
2023-04-16T14:55:32.601Z,9.10
2023-04-16T14:57:59.786Z,9.15
2023-04-16T15:00:27.488Z,9.95
2023-04-16T15:02:55.097Z,8.00
2023-04-16T15:05:22.117Z,8.95
2023-04-16T15:07:48.543Z,8.90
2023-04-16T15:10:15.127Z,9.32
2023-04-16T15:12:41.565Z,8.45
2023-04-16T15:15:09.046Z,7.85
2023-04-16T15:17:35.933Z,7.68
2023-04-16T15:20:06.005Z,8.15
2023-04-16T15:22:32.476Z,8.07
2023-04-16T15:24:58.894Z,7.30
2023-04-16T15:27:25.619Z,8.98
2023-04-16T15:29:53.876Z,7.32
2023-04-16T15:32:20.815Z,8.38
2023-04-16T15:34:47.394Z,7.90
2023-04-16T15:37:14.023Z,9.25
2023-04-16T15:39:40.761Z,8.45
2023-04-16T15:42:08.380Z,8.27
2023-04-16T15:44:35.043Z,8.38
2023-04-16T15:47:01.545Z,8.60
2023-04-16T15:49:28.068Z,9.05
2023-04-16T15:51:55.685Z,9.20
2023-04-16T15:54:22.429Z,8.70
2023-04-16T15:56:48.959Z,9.57
2023-04-16T15:59:15.668Z,9.32
2023-04-16T16:01:42.196Z,9.63
2023-04-16T16:04:08.937Z,9.25
2023-04-16T16:06:37.894Z,9.55
2023-04-16T16:09:04.921Z,9.75
2023-04-16T16:11:32.609Z,10.65
2023-04-16T16:14:01.307Z,9.88
2023-04-16T16:16:28.620Z,9.80
2023-04-16T16:18:55.411Z,10.18
2023-04-16T16:21:22.023Z,10.50
2023-04-16T16:23:48.608Z,10.48
2023-04-16T16:26:15.111Z,9.93
2023-04-16T16:28:43.753Z,10.07
2023-04-16T16:31:12.164Z,9.45
2023-04-16T16:33:40.301Z,10.32
2023-04-16T16:36:10.763Z,9.98
2023-04-16T16:38:37.898Z,11.02
2023-04-16T16:41:04.351Z,10.15
2023-04-16T16:43:31.001Z,10.95
2023-04-16T16:45:57.465Z,10.93
2023-04-16T16:48:23.938Z,11.15
2023-04-16T16:50:50.541Z,10.88
2023-04-16T16:53:17.114Z,12.30
2023-04-16T16:55:43.547Z,12.38
2023-04-16T16:58:10.157Z,12.30
2023-04-16T17:00:37.674Z,12.00
2023-04-16T17:03:04.301Z,12.10
2023-04-16T17:05:31.059Z,11.82
2023-04-16T17:07:57.506Z,11.60
2023-04-16T17:10:25.096Z,11.40
2023-04-16T17:12:51.822Z,10.48
2023-04-16T17:15:21.239Z,11.48
2023-04-16T17:17:48.455Z,11.88
2023-04-16T17:20:15.599Z,11.05
2023-04-16T17:22:42.426Z,12.98
2023-04-16T17:25:09.216Z,12.10
2023-04-16T17:27:36.017Z,12.88
2023-04-16T17:30:05.285Z,12.05
2023-04-16T17:32:32.573Z,11.52
2023-04-16T17:35:00.970Z,12.15
2023-04-16T17:37:27.623Z,12.38
2023-04-16T17:39:54.227Z,12.48
2023-04-16T17:42:20.762Z,13.05
2023-04-16T17:44:47.535Z,12.50
2023-04-16T17:47:14.029Z,12.52
2023-04-16T17:49:40.659Z,12.77
2023-04-16T17:52:07.160Z,12.25
2023-04-16T17:54:33.635Z,12.77
2023-04-16T17:57:00.154Z,12.80
2023-04-16T17:59:27.311Z,12.27
2023-04-16T18:01:54.780Z,12.23
2023-04-16T18:04:21.527Z,12.18
2023-04-16T18:06:48.335Z,12.25
2023-04-16T18:09:15.472Z,13.32
2023-04-16T18:11:42.129Z,13.20
2023-04-16T18:14:10.011Z,12.63
2023-04-16T18:16:36.793Z,13.05
2023-04-16T18:19:03.344Z,13.15
2023-04-16T18:21:30.399Z,12.52
2023-04-16T18:23:57.478Z,13.25
2023-04-16T18:26:25.261Z,13.02
2023-04-16T18:28:51.980Z,12.35
2023-04-16T18:31:21.055Z,12.15
2023-04-16T18:33:56.706Z,12.88
2023-04-16T18:36:24.419Z,12.80
2023-04-16T18:39:00.795Z,12.45
2023-04-16T18:41:28.036Z,13.23
2023-04-16T18:43:54.728Z,11.93
2023-04-16T18:46:21.229Z,12.70
2023-04-16T18:48:48.153Z,12.20
2023-04-16T18:51:16.359Z,12.77
2023-04-16T18:53:45.243Z,12.75
2023-04-16T18:56:11.770Z,12.32
2023-04-16T18:58:38.267Z,13.70
2023-04-16T19:01:07.724Z,13.55
2023-04-16T19:03:34.446Z,13.18
2023-04-16T19:06:01.132Z,14.10
2023-04-16T19:08:27.798Z,14.88
2023-04-16T19:10:54.369Z,14.43
2023-04-16T19:13:20.939Z,13.52
2023-04-16T19:15:47.439Z,14.80
2023-04-16T19:18:14.005Z,14.95
2023-04-16T19:20:40.514Z,14.02
2023-04-16T19:23:09.221Z,15.77
2023-04-16T19:25:36.670Z,15.20
2023-04-16T19:28:03.807Z,15.25
2023-04-16T19:30:30.879Z,14.80
2023-04-16T19:32:57.615Z,14.35
2023-04-16T19:35:24.282Z,14.23
2023-04-16T19:37:51.064Z,13.77
2023-04-16T19:40:17.666Z,14.00
2023-04-16T19:42:45.376Z,15.23
2023-04-16T19:45:11.977Z,14.00
2023-04-16T19:47:38.689Z,14.23
2023-04-16T19:50:05.829Z,14.60
2023-04-16T19:52:37.317Z,15.57
2023-04-16T19:55:04.410Z,13.73
2023-04-16T19:57:30.934Z,14.35
2023-04-16T19:59:57.401Z,14.23
2023-04-16T20:02:23.993Z,13.82
2023-04-16T20:04:50.776Z,14.88
2023-04-16T20:07:17.511Z,14.52
2023-04-16T20:09:44.083Z,14.57
2023-04-16T20:12:10.936Z,13.73
2023-04-16T20:14:37.366Z,14.02
2023-04-16T20:17:04.045Z,14.60
2023-04-16T20:19:33.650Z,14.20
2023-04-16T20:22:00.363Z,13.98
2023-04-16T20:24:26.812Z,13.38
2023-04-16T20:26:53.292Z,13.48
2023-04-16T20:29:19.879Z,14.25
2023-04-16T20:31:46.636Z,12.27
2023-04-16T20:34:13.097Z,11.70
2023-04-16T20:36:39.554Z,12.13
2023-04-16T20:39:08.138Z,11.73
2023-04-16T20:41:34.996Z,10.77
2023-04-16T20:44:05.447Z,10.60
2023-04-16T20:46:34.155Z,11.32
2023-04-16T20:49:03.507Z,11.57
2023-04-16T20:51:29.954Z,10.85
2023-04-16T20:53:56.718Z,14.95
2023-04-16T20:56:23.157Z,13.40
2023-04-16T20:58:49.712Z,11.65
2023-04-16T21:01:18.274Z,11.48
2023-04-16T21:03:45.187Z,10.85
2023-04-16T21:06:14.416Z,10.82
2023-04-16T21:08:41.125Z,11.32
2023-04-16T21:11:07.581Z,11.60
2023-04-16T21:13:34.331Z,11.70
2023-04-16T21:16:00.929Z,12.13
2023-04-16T21:18:27.599Z,12.20
2023-04-16T21:20:54.030Z,12.18
2023-04-16T21:23:20.642Z,12.48
2023-04-16T21:25:47.113Z,12.75
2023-04-16T21:28:13.598Z,12.98
2023-04-16T21:30:40.446Z,12.50
2023-04-16T21:33:07.052Z,13.10
2023-04-16T21:35:33.594Z,12.70
2023-04-16T21:38:00.346Z,12.35
2023-04-16T21:40:26.855Z,13.48
2023-04-16T21:42:53.624Z,12.75
2023-04-16T21:45:20.235Z,13.48
2023-04-16T21:47:46.657Z,14.05
2023-04-16T21:50:13.332Z,13.05
2023-04-16T21:52:40.339Z,13.57
2023-04-16T21:55:16.663Z,14.15
2023-04-16T21:57:43.235Z,13.95
2023-04-16T22:00:13.881Z,14.25
2023-04-16T22:02:42.292Z,14.35
2023-04-16T22:05:09.404Z,14.52
2023-04-16T22:07:36.735Z,14.60
2023-04-16T22:10:04.472Z,14.52
2023-04-16T22:12:31.059Z,13.90
2023-04-16T22:15:02.345Z,14.40
2023-04-16T22:17:30.102Z,13.63
2023-04-16T22:20:00.368Z,14.40
2023-04-16T22:22:26.773Z,14.75
2023-04-16T22:24:53.439Z,13.90
2023-04-16T22:27:19.931Z,13.98
2023-04-16T22:29:46.551Z,14.90
2023-04-16T22:32:13.096Z,15.30
2023-04-16T22:34:39.633Z,14.68
2023-04-16T22:37:07.973Z,13.98
2023-04-16T22:39:34.696Z,13.77
2023-04-16T22:42:02.803Z,14.00
2023-04-16T22:44:29.350Z,14.25
2023-04-16T22:46:56.046Z,14.15
2023-04-16T22:49:22.511Z,14.60
2023-04-16T22:51:49.137Z,14.18
2023-04-16T22:54:15.772Z,14.43
2023-04-16T22:56:42.292Z,13.75
2023-04-16T22:59:08.964Z,15.20
2023-04-16T23:01:35.787Z,15.18
2023-04-16T23:04:02.538Z,14.85
2023-04-16T23:06:29.042Z,13.88
2023-04-16T23:08:55.620Z,13.82
2023-04-16T23:11:22.209Z,14.40
2023-04-16T23:13:48.760Z,13.95
2023-04-16T23:16:15.458Z,14.90
2023-04-16T23:18:42.050Z,14.75
2023-04-16T23:21:08.520Z,14.85
2023-04-16T23:23:34.971Z,14.75
2023-04-16T23:26:02.771Z,14.77
2023-04-16T23:28:29.211Z,15.75
2023-04-16T23:30:55.928Z,15.30
2023-04-16T23:33:22.606Z,14.70
2023-04-16T23:35:49.074Z,15.93
2023-04-16T23:38:15.648Z,16.20
2023-04-16T23:40:42.212Z,14.63
2023-04-16T23:43:10.098Z,15.93
2023-04-16T23:45:36.847Z,14.80
2023-04-16T23:48:03.524Z,14.82
2023-04-16T23:50:30.269Z,14.63
2023-04-16T23:52:56.839Z,15.38
2023-04-16T23:55:23.492Z,14.77
2023-04-16T23:57:50.013Z,15.00
